Time;durP1;ratioP1;P1;durP2;ratioP2;P2;SDS_P1;SDS_P2;PMS_P1;PMS_P2;Temp;Humidity;BMP_temperature;BMP_pressure;BME280_temperature;BME280_humidity;BME280_pressure;Samples;Min_cycle;Max_cycle;Signal;HPM_P1;HPM_P2
2022/08/12 00:43:30;;;;;;;2.50;2.30;;;21.70;20.90;;;;;;10410369;28;20715;-76
2022/08/12 00:48:34;;;;;;;2.10;2.00;;;21.70;21.40;;;;;;10410253;28;20229;-76
2022/08/12 00:53:37;;;;;;;1.93;1.83;;;21.60;21.20;;;;;;10410363;28;20237;-77
2022/08/12 00:58:49;;;;;;;1.80;1.70;;;21.50;21.20;;;;;;10410205;28;20742;-76
2022/08/12 01:14:33;;;;;;;3.33;1.90;;;21.30;21.40;;;;;;10409636;28;20240;-77
2022/08/12 01:19:36;;;;;;;2.30;2.10;;;21.30;21.90;;;;;;10409384;28;20237;-76
2022/08/12 01:25:03;;;;;;;2.33;2.13;;;21.20;21.70;;;;;;10409342;28;20226;-76
2022/08/12 01:30:09;;;;;;;2.13;2.03;;;21.10;22.30;;;;;;10408712;28;20226;-76
2022/08/12 01:35:14;;;;;;;2.30;2.10;;;21.00;22.00;;;;;;10408737;28;20454;-76
2022/08/12 01:40:24;;;;;;;2.37;1.90;;;20.90;22.20;;;;;;10408730;28;20240;-76
2022/08/12 01:45:51;;;;;;;2.90;2.70;;;20.80;22.40;;;;;;10408456;28;20253;-76
2022/08/12 01:51:03;;;;;;;3.17;2.03;;;20.70;23.20;;;;;;10407411;28;20233;-76
2022/08/12 01:56:11;;;;;;;2.20;2.10;;;20.60;23.10;;;;;;10407847;28;20253;-77
2022/08/12 02:01:14;;;;;;;2.63;2.07;;;20.50;22.90;;;;;;10407769;28;20230;-76
2022/08/12 02:11:57;;;;;;;2.43;2.30;;;20.20;23.20;;;;;;10407613;28;20233;-77
2022/08/12 02:17:24;;;;;;;1.90;1.80;;;20.10;23.80;;;;;;10406632;28;20719;-76
2022/08/12 02:22:48;;;;;;;2.43;2.10;;;20.10;23.50;;;;;;10406822;28;20232;-77
2022/08/12 02:27:54;;;;;;;2.10;2.00;;;20.00;23.00;;;;;;10406937;28;20233;-76
2022/08/12 02:32:59;;;;;;;2.50;2.30;;;20.00;23.50;;;;;;10406563;28;20233;-77
2022/08/12 02:38:05;;;;;;;2.37;2.10;;;20.00;23.30;;;;;;10406637;28;20236;-75
2022/08/12 02:43:17;;;;;;;4.60;2.20;;;19.90;23.20;;;;;;10406530;28;20233;-76
2022/08/12 02:48:28;;;;;;;2.13;2.03;;;19.80;23.80;;;;;;10406244;28;20244;-77
2022/08/12 02:53:33;;;;;;;2.53;2.37;;;19.70;24.10;;;;;;10405815;28;20241;-76
2022/08/12 02:58:38;;;;;;;1.80;1.70;;;19.60;23.40;;;;;;10405608;28;20236;-76
2022/08/12 03:03:52;;;;;;;2.10;2.00;;;19.50;23.70;;;;;;10405799;28;20308;-76
2022/08/12 03:08:59;;;;;;;2.20;2.10;;;19.40;24.00;;;;;;10405841;28;20226;-76
2022/08/12 03:14:07;;;;;;;2.27;2.07;;;19.40;24.30;;;;;;10405174;28;20234;-76
2022/08/12 03:19:12;;;;;;;2.40;2.20;;;19.40;24.20;;;;;;10405218;28;20376;-77
2022/08/12 03:24:18;;;;;;;2.30;2.20;;;19.40;23.80;;;;;;10405508;28;20316;-76
2022/08/12 03:29:29;;;;;;;2.30;2.10;;;19.30;23.90;;;;;;10405086;28;20233;-76
2022/08/12 03:34:35;;;;;;;2.10;1.97;;;19.30;24.70;;;;;;10405260;28;20233;-76
2022/08/12 03:39:43;;;;;;;2.60;2.40;;;19.20;23.90;;;;;;10405205;28;20225;-76
2022/08/12 04:01:01;;;;;;;2.37;2.17;;;19.00;24.20;;;;;;10445247;28;20233;-77
2022/08/12 04:06:08;;;;;;;2.07;1.97;;;18.90;24.60;;;;;;10431556;28;20229;-76
2022/08/12 04:16:35;;;;;;;2.50;2.20;;;18.80;24.50;;;;;;10403155;28;20239;-76
2022/08/12 04:21:39;;;;;;;2.50;2.30;;;18.80;24.50;;;;;;10398589;28;20239;-76
2022/08/12 04:27:05;;;;;;;2.27;2.10;;;18.70;24.40;;;;;;10400093;28;20637;-76
2022/08/12 04:32:09;;;;;;;3.03;2.57;;;18.60;24.40;;;;;;10397982;28;20272;-76
2022/08/12 04:37:15;;;;;;;2.40;2.20;;;18.60;25.10;;;;;;10399832;28;20237;-77
2022/08/12 04:42:19;;;;;;;2.10;2.00;;;18.50;24.60;;;;;;10398065;28;20226;-77
2022/08/12 04:47:24;;;;;;;3.10;2.77;;;18.50;24.70;;;;;;10397522;28;20245;-77
2022/08/12 04:52:27;;;;;;;4.73;2.80;;;18.40;25.60;;;;;;10401381;28;20695;-77
2022/08/12 04:57:36;;;;;;;3.13;2.93;;;18.30;25.30;;;;;;10398915;28;20253;-77
2022/08/12 05:02:41;;;;;;;2.93;2.73;;;18.30;25.30;;;;;;10396278;28;20226;-77
2022/08/12 05:07:46;;;;;;;2.77;2.50;;;18.20;25.70;;;;;;10398063;28;20256;-77
2022/08/12 05:12:59;;;;;;;3.20;2.90;;;18.20;25.50;;;;;;10393340;28;20320;-77
2022/08/12 05:18:04;;;;;;;3.13;2.73;;;18.20;26.10;;;;;;10390474;28;20237;-77
2022/08/12 05:23:22;;;;;;;5.07;3.00;;;18.20;26.20;;;;;;10395231;28;20583;-77
2022/08/12 05:28:27;;;;;;;2.83;2.63;;;18.30;26.30;;;;;;10399258;28;20229;-77
2022/08/12 05:33:37;;;;;;;5.13;2.90;;;18.30;26.50;;;;;;10400691;28;20601;-77
2022/08/12 05:38:59;;;;;;;2.70;2.47;;;18.40;27.00;;;;;;10397609;28;20255;-76
2022/08/12 05:44:04;;;;;;;3.77;2.63;;;18.50;26.60;;;;;;10396686;28;20312;-77
2022/08/12 05:49:09;;;;;;;5.47;2.87;;;18.50;26.90;;;;;;10397538;28;20237;-77
2022/08/12 05:54:12;;;;;;;3.07;2.77;;;18.60;27.30;;;;;;10397432;28;20238;-77
2022/08/12 05:59:15;;;;;;;3.33;2.80;;;18.80;27.00;;;;;;10397174;28;20229;-76
2022/08/12 06:04:20;;;;;;;2.70;2.50;;;18.90;27.00;;;;;;10394987;28;20217;-77
2022/08/12 06:09:25;;;;;;;2.97;2.77;;;19.00;27.50;;;;;;10395258;28;20240;-77
2022/08/12 06:14:28;;;;;;;3.10;2.60;;;19.20;27.30;;;;;;10395271;28;20261;-77
2022/08/12 06:19:34;;;;;;;2.63;2.43;;;19.30;27.20;;;;;;10393790;28;20668;-77
2022/08/12 06:24:59;;;;;;;3.80;2.20;;;19.40;27.60;;;;;;10396395;28;20214;-75
2022/08/12 06:30:02;;;;;;;2.53;2.33;;;19.60;27.20;;;;;;10395318;28;20351;-77
2022/08/12 06:35:17;;;;;;;2.13;2.00;;;19.80;27.70;;;;;;10395480;28;20236;-75
2022/08/12 06:46:00;;;;;;;2.30;2.20;;;20.10;27.20;;;;;;10396470;28;20599;-76
2022/08/12 06:51:07;;;;;;;2.37;2.20;;;20.30;27.20;;;;;;10393728;28;20715;-76
2022/08/12 06:56:10;;;;;;;2.43;2.30;;;20.50;27.60;;;;;;10395174;28;20237;-76
2022/08/12 07:01:16;;;;;;;2.67;2.30;;;20.70;27.30;;;;;;10396345;28;20233;-76
2022/08/12 07:06:20;;;;;;;2.30;2.17;;;20.90;27.30;;;;;;10393743;28;20254;-76
2022/08/12 07:11:24;;;;;;;2.13;2.03;;;21.10;27.50;;;;;;10395696;28;20234;-76
2022/08/12 07:16:50;;;;;;;3.17;2.13;;;21.30;27.10;;;;;;10390353;28;20237;-76
2022/08/12 07:21:52;;;;;;;2.67;2.10;;;21.60;27.00;;;;;;10397781;28;20213;-76
2022/08/12 07:27:04;;;;;;;3.03;2.10;;;21.80;26.90;;;;;;10393958;28;20229;-78
2022/08/12 07:32:07;;;;;;;2.47;2.20;;;22.10;26.70;;;;;;10391399;28;20233;-76
2022/08/12 07:37:12;;;;;;;3.03;1.93;;;22.30;26.90;;;;;;10393637;28;20707;-76
2022/08/12 07:42:15;;;;;;;1.90;1.70;;;22.60;26.70;;;;;;10389449;28;20243;-76
2022/08/12 07:47:19;;;;;;;4.07;2.33;;;22.80;26.50;;;;;;10401138;28;20248;-76
2022/08/12 07:52:24;;;;;;;2.00;1.90;;;23.10;26.50;;;;;;10403812;28;20736;-76
2022/08/12 07:57:27;;;;;;;2.20;2.10;;;23.40;26.30;;;;;;10404162;28;20240;-76
2022/08/12 08:02:32;;;;;;;2.03;1.90;;;23.60;25.80;;;;;;10401994;28;20320;-76
2022/08/12 08:07:37;;;;;;;2.47;2.27;;;24.00;26.30;;;;;;10398092;28;20232;-76
2022/08/12 08:12:57;;;;;;;3.50;1.83;;;24.20;25.20;;;;;;10397420;28;20595;-76
2022/08/12 08:18:03;;;;;;;2.00;1.90;;;24.50;25.20;;;;;;10395730;28;20229;-76
2022/08/12 08:23:10;;;;;;;2.00;1.90;;;24.80;24.80;;;;;;10396951;28;20225;-76
2022/08/12 08:28:16;;;;;;;1.97;1.77;;;25.10;24.50;;;;;;10402070;28;20229;-76
2022/08/12 08:33:19;;;;;;;2.10;1.87;;;25.40;24.40;;;;;;10402046;28;20221;-76
2022/08/12 08:38:44;;;;;;;2.00;1.87;;;25.60;24.10;;;;;;10397936;28;20240;-76
2022/08/12 08:44:01;;;;;;;1.87;1.77;;;25.90;23.60;;;;;;10400728;28;20241;-76
2022/08/12 08:49:05;;;;;;;2.13;2.03;;;26.00;23.60;;;;;;10400403;28;20241;-76
2022/08/12 08:54:10;;;;;;;2.20;2.10;;;26.20;23.40;;;;;;10399192;28;20240;-76
2022/08/12 08:59:14;;;;;;;1.90;1.80;;;26.40;22.90;;;;;;10401219;28;20233;-77
2022/08/12 09:04:19;;;;;;;1.93;1.83;;;26.60;22.80;;;;;;10395199;28;20218;-76
2022/08/12 09:09:43;;;;;;;2.00;1.90;;;26.80;22.50;;;;;;10393345;28;20229;-77
2022/08/12 09:15:06;;;;;;;1.97;1.87;;;27.00;22.40;;;;;;10399062;28;20233;-77
2022/08/12 09:20:22;;;;;;;2.40;1.70;;;27.10;21.90;;;;;;10401342;28;20225;-76
2022/08/12 09:25:34;;;;;;;2.03;1.83;;;27.20;21.60;;;;;;10399945;28;20237;-76
2022/08/12 09:30:37;;;;;;;1.90;1.80;;;27.40;21.30;;;;;;10395122;28;20236;-75
2022/08/12 09:35:44;;;;;;;2.00;1.90;;;27.50;21.30;;;;;;10395942;28;20649;-76
2022/08/12 09:40:50;;;;;;;2.33;1.80;;;27.60;21.00;;;;;;10398282;28;20246;-76
2022/08/12 09:46:15;;;;;;;3.40;1.90;;;27.60;20.70;;;;;;10390867;28;20703;-76
2022/08/12 09:51:33;;;;;;;2.17;1.77;;;27.70;20.90;;;;;;10394561;28;20256;-76
2022/08/12 09:56:42;;;;;;;2.40;2.00;;;27.80;20.00;;;;;;10393236;28;20915;-76
2022/08/12 10:02:06;;;;;;;1.83;1.70;;;27.80;20.00;;;;;;10397411;28;20228;-77
2022/08/12 10:07:30;;;;;;;1.87;1.70;;;27.80;20.10;;;;;;10396194;28;20222;-76
2022/08/12 10:18:14;;;;;;;1.70;1.60;;;27.70;19.90;;;;;;10391522;28;20225;-77
2022/08/12 10:23:17;;;;;;;2.30;1.63;;;27.70;20.00;;;;;;10397668;28;20603;-76
2022/08/12 10:33:43;;;;;;;1.60;1.50;;;27.80;20.00;;;;;;10390535;28;20232;-77
2022/08/12 10:39:06;;;;;;;1.70;1.60;;;28.00;20.10;;;;;;10395481;28;20217;-76
2022/08/12 10:44:32;;;;;;;1.77;1.50;;;28.10;20.20;;;;;;10390368;28;20233;-76
2022/08/12 10:49:39;;;;;;;1.60;1.50;;;28.20;19.50;;;;;;10397014;28;20233;-76
2022/08/12 10:55:02;;;;;;;1.90;1.57;;;28.30;19.70;;;;;;10389975;28;20230;-76
2022/08/12 11:00:12;;;;;;;1.77;1.30;;;28.40;19.50;;;;;;10393805;28;20565;-76
2022/08/12 11:05:35;;;;;;;1.10;1.10;;;28.40;19.10;;;;;;10398031;28;20237;-76
2022/08/12 11:10:58;;;;;;;1.10;1.10;;;28.50;19.10;;;;;;10389960;28;20229;-76
2022/08/12 11:16:09;;;;;;;1.20;1.10;;;28.70;18.70;;;;;;10397237;28;20221;-77
2022/08/12 11:21:25;;;;;;;1.00;1.00;;;28.80;18.00;;;;;;10397856;28;20240;-77
2022/08/12 11:26:49;;;;;;;1.20;1.10;;;28.90;18.10;;;;;;10390981;28;20581;-76
2022/08/12 11:31:54;;;;;;;1.30;1.20;;;29.00;17.70;;;;;;10394046;28;20275;-76
2022/08/12 11:37:06;;;;;;;1.10;1.10;;;29.00;17.20;;;;;;10396119;28;20237;-76
2022/08/12 11:42:28;;;;;;;0.90;0.90;;;29.10;17.70;;;;;;10385928;28;20252;-77
2022/08/12 11:47:36;;;;;;;1.00;1.00;;;29.20;17.30;;;;;;10397292;28;20240;-76
2022/08/12 11:52:42;;;;;;;1.47;1.10;;;29.20;16.60;;;;;;10390297;28;20305;-76
2022/08/12 11:57:59;;;;;;;1.23;1.10;;;29.30;16.90;;;;;;10391488;28;20737;-77
2022/08/12 12:03:23;;;;;;;1.77;1.20;;;29.40;17.00;;;;;;10391209;28;20612;-77
2022/08/12 12:08:46;;;;;;;1.20;1.20;;;29.40;16.60;;;;;;10391394;28;20275;-77
2022/08/12 12:13:55;;;;;;;1.00;1.00;;;29.50;16.50;;;;;;10387485;28;20250;-77
2022/08/12 12:19:14;;;;;;;1.10;1.10;;;29.50;16.50;;;;;;10385290;28;20638;-77
2022/08/12 12:24:17;;;;;;;1.10;1.10;;;29.50;15.80;;;;;;10390226;28;20234;-76
2022/08/12 12:29:24;;;;;;;1.23;1.20;;;29.50;16.10;;;;;;10392128;28;20263;-77
2022/08/12 12:34:48;;;;;;;1.10;1.10;;;29.60;16.10;;;;;;10400347;28;20256;-77
2022/08/12 12:40:14;;;;;;;1.37;1.30;;;29.70;15.80;;;;;;10397672;28;20227;-77
2022/08/12 12:45:17;;;;;;;1.17;1.17;;;29.80;15.60;;;;;;10396379;28;20306;-77
2022/08/12 12:50:23;;;;;;;1.20;1.20;;;29.90;15.80;;;;;;10394971;28;20248;-76
2022/08/12 12:55:38;;;;;;;1.33;1.20;;;29.90;15.30;;;;;;10394581;28;20241;-77
2022/08/12 13:00:43;;;;;;;1.10;1.10;;;29.80;15.40;;;;;;10389345;28;20248;-76
2022/08/12 13:05:59;;;;;;;1.20;1.20;;;29.80;15.30;;;;;;10400146;28;20221;-75
2022/08/12 13:11:04;;;;;;;1.33;1.23;;;29.90;15.10;;;;;;10395915;28;20314;-76
2022/08/12 13:16:08;;;;;;;1.20;1.20;;;29.90;15.30;;;;;;10396632;28;20237;-76
2022/08/12 13:21:22;;;;;;;1.50;1.33;;;29.90;15.30;;;;;;10392426;28;20743;-76
2022/08/12 13:26:38;;;;;;;0.90;0.90;;;29.80;14.90;;;;;;10399697;28;20240;-76
2022/08/12 13:31:42;;;;;;;1.10;1.10;;;29.80;14.90;;;;;;10396711;28;20226;-76
2022/08/12 13:37:06;;;;;;;1.10;1.10;;;29.80;14.80;;;;;;10399138;28;20237;-76
2022/08/12 13:42:12;;;;;;;1.07;1.00;;;29.80;14.60;;;;;;10391476;28;20229;-76
2022/08/12 13:47:17;;;;;;;1.57;1.10;;;29.90;15.10;;;;;;10392644;28;20309;-76
2022/08/12 13:52:24;;;;;;;1.00;1.00;;;29.90;14.80;;;;;;10391414;28;20232;-76
2022/08/12 13:57:42;;;;;;;1.10;1.10;;;29.90;14.40;;;;;;10398219;28;20233;-76
2022/08/12 14:02:49;;;;;;;1.00;1.00;;;30.00;14.00;;;;;;10399101;28;20257;-77
2022/08/12 14:07:59;;;;;;;1.07;1.07;;;30.00;14.60;;;;;;10393310;28;20288;-76
2022/08/12 14:13:05;;;;;;;1.10;1.10;;;30.00;14.00;;;;;;10381620;28;20345;-76
2022/08/12 14:18:20;;;;;;;2.10;1.23;;;30.00;14.60;;;;;;10392756;28;20928;-76
2022/08/12 14:23:27;;;;;;;1.50;1.10;;;29.90;14.40;;;;;;10396871;28;20237;-76
2022/08/12 14:28:52;;;;;;;1.27;1.17;;;29.90;14.30;;;;;;10395943;28;20255;-76
2022/08/12 14:34:03;;;;;;;1.10;1.10;;;29.80;14.40;;;;;;10394262;28;20801;-76
2022/08/12 14:39:08;;;;;;;1.60;1.00;;;29.80;14.50;;;;;;10391223;28;20230;-76
2022/08/12 14:44:13;;;;;;;0.90;0.90;;;29.70;14.50;;;;;;10391594;28;20225;-76
2022/08/12 14:49:36;;;;;;;0.90;0.90;;;29.70;14.70;;;;;;10392603;28;20245;-76
2022/08/12 14:55:01;;;;;;;0.90;0.90;;;29.60;14.50;;;;;;10395069;28;20614;-76
2022/08/12 15:05:57;;;;;;;0.90;0.90;;;29.40;15.60;;;;;;10392475;28;21113;-76
2022/08/12 15:11:12;;;;;;;2.63;0.90;;;29.30;14.60;;;;;;10394582;28;20230;-76
2022/08/12 15:16:16;;;;;;;1.13;0.90;;;29.10;14.30;;;;;;10393612;28;20229;-77
2022/08/12 15:21:23;;;;;;;1.00;1.00;;;29.00;14.60;;;;;;10394748;28;20283;-76
2022/08/12 15:26:37;;;;;;;1.13;1.10;;;28.90;14.70;;;;;;10395815;28;20865;-76
2022/08/12 15:31:43;;;;;;;1.03;1.00;;;28.80;14.90;;;;;;10395610;28;20236;-76
2022/08/12 15:37:06;;;;;;;1.03;1.03;;;28.80;15.00;;;;;;10397149;28;20283;-76
2022/08/12 15:42:12;;;;;;;0.93;0.80;;;28.80;15.20;;;;;;10401951;28;20858;-76
2022/08/12 15:47:17;;;;;;;0.90;0.90;;;28.70;14.80;;;;;;10399696;28;20661;-76
2022/08/12 15:52:29;;;;;;;0.90;0.90;;;28.70;15.00;;;;;;10395801;28;20248;-76
2022/08/12 15:57:34;;;;;;;1.00;1.00;;;28.60;15.10;;;;;;10393916;28;20767;-76
2022/08/12 16:02:41;;;;;;;0.90;0.90;;;28.60;15.20;;;;;;10399182;28;20783;-76
2022/08/12 16:07:54;;;;;;;1.00;1.00;;;28.60;15.20;;;;;;10399229;28;20242;-76
2022/08/12 16:13:11;;;;;;;1.10;1.10;;;28.60;15.20;;;;;;10392874;28;20252;-76
2022/08/12 16:18:14;;;;;;;1.10;1.10;;;28.60;14.90;;;;;;10400465;28;21242;-76
2022/08/12 16:23:22;;;;;;;1.20;1.20;;;28.60;15.10;;;;;;10403848;28;20236;-76
2022/08/12 16:28:47;;;;;;;1.07;1.07;;;28.60;15.00;;;;;;10403864;28;20234;-76
2022/08/12 16:33:50;;;;;;;1.07;1.07;;;28.60;15.20;;;;;;10398706;28;20236;-76
2022/08/12 16:39:02;;;;;;;1.20;1.10;;;28.50;15.00;;;;;;10398086;28;20226;-76
2022/08/12 16:44:08;;;;;;;1.10;1.10;;;28.60;14.90;;;;;;10405795;28;20249;-76
2022/08/12 16:49:12;;;;;;;0.90;0.90;;;28.60;15.00;;;;;;10394524;28;20595;-76
2022/08/12 16:54:20;;;;;;;1.33;1.00;;;28.70;15.10;;;;;;10394211;28;21007;-76
2022/08/12 16:59:30;;;;;;;1.00;1.00;;;28.70;14.90;;;;;;10400644;28;20244;-76
2022/08/12 17:04:53;;;;;;;0.90;0.90;;;28.80;14.90;;;;;;10398102;28;20699;-77
2022/08/12 17:09:56;;;;;;;0.90;0.90;;;28.80;15.00;;;;;;10400796;28;20580;-76
2022/08/12 17:15:01;;;;;;;1.30;1.20;;;28.80;15.00;;;;;;10400354;28;20229;-76
2022/08/12 17:20:27;;;;;;;1.17;1.10;;;28.90;15.00;;;;;;10396382;28;20229;-76
2022/08/12 17:25:43;;;;;;;3.73;1.40;;;28.90;14.70;;;;;;10394622;28;20308;-76
2022/08/12 17:30:51;;;;;;;1.00;1.00;;;29.00;14.80;;;;;;10394558;28;20279;-76
2022/08/12 17:36:04;;;;;;;1.00;1.00;;;29.00;14.80;;;;;;10399810;28;20311;-76
2022/08/12 17:41:08;;;;;;;0.90;0.90;;;29.00;14.90;;;;;;10401479;28;20312;-76
2022/08/12 17:46:30;;;;;;;1.33;1.20;;;29.00;15.10;;;;;;10393415;28;20233;-77
2022/08/12 17:51:37;;;;;;;1.73;1.30;;;28.90;15.10;;;;;;10397555;28;20226;-76
2022/08/12 17:56:54;;;;;;;2.40;1.10;;;28.80;15.00;;;;;;10393632;28;20229;-76
2022/08/12 18:02:01;;;;;;;1.77;1.10;;;28.70;15.80;;;;;;10391433;28;20738;-76
2022/08/12 18:07:06;;;;;;;1.37;1.17;;;28.50;15.30;;;;;;10396702;28;20226;-76
2022/08/12 18:17:41;;;;;;;1.30;1.20;;;28.30;15.50;;;;;;10395490;28;20316;-76
2022/08/12 18:22:52;;;;;;;1.20;1.10;;;28.20;15.70;;;;;;10397137;28;20221;-76
2022/08/12 18:27:59;;;;;;;1.37;1.20;;;28.10;15.70;;;;;;10397079;28;20951;-76
2022/08/12 18:33:23;;;;;;;1.10;1.10;;;27.90;15.70;;;;;;10391103;28;20854;-76
2022/08/12 18:38:27;;;;;;;1.10;1.10;;;27.80;15.90;;;;;;10392033;28;20234;-76
2022/08/12 18:43:33;;;;;;;1.10;1.10;;;27.70;16.00;;;;;;10400015;28;20233;-76
2022/08/12 18:48:59;;;;;;;1.00;1.00;;;27.60;16.20;;;;;;10393837;28;20640;-76
2022/08/12 18:54:21;;;;;;;1.50;1.40;;;27.50;16.30;;;;;;10390560;28;20740;-76
2022/08/12 18:59:25;;;;;;;1.30;1.30;;;27.50;16.30;;;;;;10394615;28;21014;-76
2022/08/12 19:04:50;;;;;;;1.67;1.57;;;27.40;16.40;;;;;;10397500;28;20275;-76
2022/08/12 19:09:56;;;;;;;1.43;1.43;;;27.30;16.60;;;;;;10399682;28;20276;-76
2022/08/12 19:15:07;;;;;;;1.30;1.20;;;27.20;16.50;;;;;;10395683;28;20535;-76
2022/08/12 19:20:14;;;;;;;1.83;1.10;;;27.10;16.60;;;;;;10394869;28;20321;-76
2022/08/12 19:25:22;;;;;;;2.80;1.20;;;27.00;16.80;;;;;;10392956;28;20683;-76
2022/08/12 19:36:08;;;;;;;1.70;1.30;;;26.70;16.90;;;;;;10391163;28;20303;-77
2022/08/12 19:41:27;;;;;;;1.53;1.43;;;26.50;17.40;;;;;;10399160;28;20821;-76
2022/08/12 19:46:51;;;;;;;1.60;1.20;;;26.40;17.30;;;;;;10406432;28;20237;-77
2022/08/12 19:51:57;;;;;;;1.50;1.40;;;26.30;17.50;;;;;;10398466;28;20221;-76
2022/08/12 19:57:01;;;;;;;1.40;1.30;;;26.20;17.80;;;;;;10404510;28;20229;-76
2022/08/12 20:02:07;;;;;;;3.13;1.20;;;26.00;17.80;;;;;;10409096;28;20703;-76
2022/08/12 20:07:15;;;;;;;1.40;1.30;;;26.00;18.20;;;;;;10399037;28;20684;-76
2022/08/12 20:12:31;;;;;;;1.50;1.40;;;25.80;18.50;;;;;;10397630;28;20260;-77
2022/08/12 20:17:37;;;;;;;1.23;1.13;;;25.60;18.20;;;;;;10400220;28;20229;-77
2022/08/12 20:22:56;;;;;;;1.30;1.30;;;25.50;18.50;;;;;;10394063;28;20260;-76
2022/08/12 20:28:00;;;;;;;1.43;1.30;;;25.40;18.70;;;;;;10401497;28;20244;-77
2022/08/12 20:33:08;;;;;;;1.33;1.23;;;25.20;18.70;;;;;;10403235;28;20234;-76
2022/08/12 20:38:26;;;;;;;1.50;1.40;;;25.10;18.60;;;;;;10401231;28;20645;-77
2022/08/12 20:43:36;;;;;;;1.30;1.30;;;25.00;18.80;;;;;;10401390;28;20301;-76
2022/08/12 20:48:45;;;;;;;1.47;1.40;;;24.90;18.60;;;;;;10399835;28;20230;-76
2022/08/12 20:54:00;;;;;;;1.00;1.00;;;24.80;18.90;;;;;;10395961;28;20770;-76
2022/08/12 20:59:09;;;;;;;1.10;1.10;;;24.70;19.30;;;;;;10397930;28;20240;-76
2022/08/12 21:09:37;;;;;;;1.30;1.20;;;24.50;19.20;;;;;;10398133;28;20241;-76
2022/08/12 21:14:43;;;;;;;1.50;1.40;;;24.30;19.60;;;;;;10393638;28;20229;-77
2022/08/12 21:20:05;;;;;;;1.20;1.20;;;24.20;19.60;;;;;;10399382;28;20691;-76
2022/08/12 21:25:18;;;;;;;1.50;1.40;;;24.10;20.40;;;;;;10393766;28;20300;-76
2022/08/12 21:30:22;;;;;;;1.10;1.10;;;24.00;20.10;;;;;;10395726;28;20242;-76
2022/08/12 21:35:36;;;;;;;1.30;1.30;;;23.90;19.90;;;;;;10397377;28;20313;-76
2022/08/12 21:40:45;;;;;;;1.10;1.10;;;23.80;20.00;;;;;;10400915;28;20321;-76
2022/08/12 21:45:54;;;;;;;1.20;1.10;;;23.60;20.20;;;;;;10396357;28;20252;-76
2022/08/12 21:51:06;;;;;;;2.07;1.97;;;23.50;20.10;;;;;;10394234;28;20233;-76
2022/08/12 21:56:27;;;;;;;2.00;1.90;;;23.50;20.50;;;;;;10398569;28;20233;-76
2022/08/12 22:01:37;;;;;;;2.70;1.70;;;23.40;20.80;;;;;;10394820;28;20232;-76
2022/08/12 22:06:52;;;;;;;1.20;1.20;;;23.30;20.60;;;;;;10393222;28;20253;-76
2022/08/12 22:12:30;;;;;;;1.30;1.30;;;23.20;20.60;;;;;;10395106;28;20254;-76
2022/08/12 22:17:32;;;;;;;1.30;1.30;;;23.00;21.10;;;;;;10394998;28;20238;-78
2022/08/12 22:22:52;;;;;;;1.30;1.20;;;22.80;20.70;;;;;;10396534;28;20309;-77
2022/08/12 22:33:26;;;;;;;3.27;1.50;;;22.60;21.40;;;;;;10394135;28;20226;-77
2022/08/12 22:38:30;;;;;;;1.70;1.60;;;22.60;21.50;;;;;;10394078;28;20226;-77
2022/08/12 22:49:03;;;;;;;1.60;1.50;;;22.50;21.90;;;;;;10394814;28;20230;-77
2022/08/12 22:54:08;;;;;;;1.57;1.47;;;22.50;21.60;;;;;;10392275;28;20233;-77
2022/08/12 22:59:33;;;;;;;1.60;1.50;;;22.40;21.60;;;;;;10397688;28;20229;-77
2022/08/12 23:04:57;;;;;;;1.23;1.23;;;22.20;22.00;;;;;;10394281;28;20232;-77
2022/08/12 23:10:00;;;;;;;1.50;1.40;;;22.10;21.90;;;;;;10392218;28;20222;-77
2022/08/12 23:15:06;;;;;;;1.70;1.27;;;22.00;21.80;;;;;;10393101;28;20221;-77
2022/08/12 23:20:11;;;;;;;1.50;1.40;;;21.80;22.40;;;;;;10391500;28;20729;-76
2022/08/12 23:25:15;;;;;;;2.30;1.70;;;21.60;22.20;;;;;;10393596;28;20248;-76
2022/08/12 23:30:26;;;;;;;1.30;1.30;;;21.50;22.30;;;;;;10393792;28;20229;-77
2022/08/12 23:35:34;;;;;;;1.57;1.47;;;21.30;23.00;;;;;;10391107;28;20217;-76
2022/08/12 23:40:58;;;;;;;1.90;1.40;;;21.20;22.60;;;;;;10393053;28;20232;-76
2022/08/12 23:46:05;;;;;;;1.60;1.50;;;21.20;22.70;;;;;;10396634;28;20272;-77
2022/08/12 23:51:10;;;;;;;1.50;1.40;;;21.10;23.20;;;;;;10387331;28;20244;-76
2022/08/12 23:56:26;;;;;;;1.50;1.40;;;21.00;23.00;;;;;;10394135;28;20307;-77
